Time;durP1;ratioP1;P1;durP2;ratioP2;P2;SDS_P1;SDS_P2;PMS_P1;PMS_P2;Temp;Humidity;BMP_temperature;BMP_pressure;BME280_temperature;BME280_humidity;BME280_pressure;Samples;Min_cycle;Max_cycle;Signal;HPM_P1;HPM_P2
2023/08/07 00:00:58;;;;;;;;;3.75;2.00;;;;;;;;4846087;29;45547;-64
2023/08/07 00:03:23;;;;;;;;;7.50;6.50;;;;;;;;4845975;29;45613;-64
2023/08/07 00:05:48;;;;;;;;;4.50;4.50;;;;;;;;4846238;29;45260;-64
2023/08/07 00:08:14;;;;;;;;;2.25;2.25;;;;;;;;4845479;29;45376;-64
2023/08/07 00:10:39;;;;;;;;;5.00;4.00;;;;;;;;4845822;29;47336;-64
2023/08/07 00:13:05;;;;;;;;;2.25;2.25;;;;;;;;4846025;29;45403;-64
2023/08/07 00:15:30;;;;;;;;;5.00;3.25;;;;;;;;4845873;29;45292;-64
2023/08/07 00:17:55;;;;;;;;;3.75;3.75;;;;;;;;4845694;29;45470;-64
2023/08/07 00:20:20;;;;;;;;;10.00;8.33;;;;;;;;4845595;29;46486;-64
2023/08/07 00:22:46;;;;;;;;;3.50;3.50;;;;;;;;4845983;29;45395;-64
2023/08/07 00:25:11;;;;;;;;;6.75;3.50;;;;;;;;4845991;29;45144;-64
2023/08/07 00:27:36;;;;;;;;;2.50;2.25;;;;;;;;4845385;29;45541;-64
2023/08/07 00:30:01;;;;;;;;;4.75;4.75;;;;;;;;4845682;29;45530;-64
2023/08/07 00:32:26;;;;;;;;;3.50;3.50;;;;;;;;4845627;29;45252;-64
2023/08/07 00:34:52;;;;;;;;;3.75;2.75;;;;;;;;4845890;29;45367;-64
2023/08/07 00:37:17;;;;;;;;;4.00;2.00;;;;;;;;4845935;29;45313;-64
2023/08/07 00:39:42;;;;;;;;;5.50;4.50;;;;;;;;4844989;29;45466;-64
2023/08/07 00:42:07;;;;;;;;;4.75;3.75;;;;;;;;4845481;29;45255;-64
2023/08/07 00:44:33;;;;;;;;;4.75;4.75;;;;;;;;4845489;29;45255;-64
2023/08/07 00:46:58;;;;;;;;;4.00;3.25;;;;;;;;4845841;29;45165;-64
2023/08/07 00:49:23;;;;;;;;;13.33;11.00;;;;;;;;4844887;29;46275;-64
2023/08/07 00:51:48;;;;;;;;;4.75;4.25;;;;;;;;4845100;29;45280;-64
2023/08/07 00:54:15;;;;;;;;;6.00;4.00;;;;;;;;4845432;29;45330;-64
2023/08/07 00:56:40;;;;;;;;;4.75;3.00;;;;;;;;4845453;29;45500;-64
2023/08/07 00:59:06;;;;;;;;;3.00;2.75;;;;;;;;4844632;29;47405;-64
2023/08/07 01:01:31;;;;;;;;;8.75;4.00;;;;;;;;4844628;29;45382;-64
2023/08/07 01:03:56;;;;;;;;;4.00;4.00;;;;;;;;4845048;29;45403;-64
2023/08/07 01:06:22;;;;;;;;;3.75;3.00;;;;;;;;4845460;29;45629;-64
2023/08/07 01:08:47;;;;;;;;;8.00;3.75;;;;;;;;4844721;29;45374;-64
2023/08/07 01:11:31;;;;;;;;;3.75;2.50;;;;;;;;4844795;29;45403;-64
2023/08/07 01:14:08;;;;;;;;;4.75;3.75;;;;;;;;4845083;29;45435;-64
2023/08/07 01:16:33;;;;;;;;;4.50;3.50;;;;;;;;4844950;29;45399;-64
2023/08/07 01:19:00;;;;;;;;;4.00;3.00;;;;;;;;4844815;29;46633;-64
2023/08/07 01:21:25;;;;;;;;;5.00;3.75;;;;;;;;4844708;29;45589;-64
2023/08/07 01:23:50;;;;;;;;;2.00;2.00;;;;;;;;4844839;29;45447;-64
2023/08/07 01:26:16;;;;;;;;;2.75;2.75;;;;;;;;4844966;29;45435;-64
2023/08/07 01:29:01;;;;;;;;;2.00;2.00;;;;;;;;4844296;29;46099;-64
2023/08/07 01:31:28;;;;;;;;;3.00;1.75;;;;;;;;4844268;29;45485;-64
2023/08/07 01:34:05;;;;;;;;;2.75;2.75;;;;;;;;4844955;29;45335;-64
2023/08/07 01:36:30;;;;;;;;;3.50;2.75;;;;;;;;4845005;29;45394;-64
2023/08/07 01:38:57;;;;;;;;;4.00;3.00;;;;;;;;4844234;29;47302;-64
2023/08/07 01:41:23;;;;;;;;;3.50;3.50;;;;;;;;4844208;29;45448;-64
2023/08/07 01:43:48;;;;;;;;;3.50;3.50;;;;;;;;4844866;29;45378;-64
2023/08/07 01:46:13;;;;;;;;;3.25;3.25;;;;;;;;4844644;29;45362;-64
2023/08/07 01:48:39;;;;;;;;;4.50;3.50;;;;;;;;4844580;29;45432;-64
2023/08/07 01:51:04;;;;;;;;;5.50;4.25;;;;;;;;4844411;29;45375;-64
2023/08/07 01:53:29;;;;;;;;;4.00;4.00;;;;;;;;4844294;29;45290;-64
2023/08/07 01:55:54;;;;;;;;;5.25;4.00;;;;;;;;4844936;29;45396;-64
2023/08/07 01:58:19;;;;;;;;;6.25;2.75;;;;;;;;4844058;29;45433;-64
2023/08/07 02:00:45;;;;;;;;;4.75;4.75;;;;;;;;4844586;29;45606;-64
2023/08/07 02:03:10;;;;;;;;;4.00;3.00;;;;;;;;4845746;29;45338;-64
2023/08/07 02:05:35;;;;;;;;;6.25;3.25;;;;;;;;4847964;29;45406;-64
2023/08/07 02:08:00;;;;;;;;;3.50;1.75;;;;;;;;4847490;29;47159;-64
2023/08/07 02:10:25;;;;;;;;;3.75;3.25;;;;;;;;4847624;29;45240;-64
2023/08/07 02:12:51;;;;;;;;;8.00;6.25;;;;;;;;4847481;29;45383;-64
2023/08/07 02:15:16;;;;;;;;;3.75;3.75;;;;;;;;4847717;29;45384;-64
2023/08/07 02:17:42;;;;;;;;;4.25;4.00;;;;;;;;4847427;29;45425;-64
2023/08/07 02:20:07;;;;;;;;;3.50;3.50;;;;;;;;4847604;29;45444;-64
2023/08/07 02:22:33;;;;;;;;;3.25;3.25;;;;;;;;4847686;29;45414;-64
2023/08/07 02:24:58;;;;;;;;;3.00;2.75;;;;;;;;4847501;29;45320;-64
2023/08/07 02:27:23;;;;;;;;;5.50;3.75;;;;;;;;4847261;29;46523;-64
2023/08/07 02:29:50;;;;;;;;;4.00;2.25;;;;;;;;4847473;29;45409;-64
2023/08/07 02:32:16;;;;;;;;;3.00;3.00;;;;;;;;4847397;29;45319;-64
2023/08/07 02:34:41;;;;;;;;;4.00;3.50;;;;;;;;4847045;29;45466;-64
2023/08/07 02:37:06;;;;;;;;;4.00;2.50;;;;;;;;4847416;29;46229;-64
2023/08/07 02:39:31;;;;;;;;;5.00;3.75;;;;;;;;4847147;29;45357;-64
2023/08/07 02:41:56;;;;;;;;;4.50;2.50;;;;;;;;4847369;29;45488;-64
2023/08/07 02:44:22;;;;;;;;;4.50;3.00;;;;;;;;4847008;29;45259;-64
2023/08/07 02:46:47;;;;;;;;;3.25;3.25;;;;;;;;4847096;29;46522;-64
2023/08/07 02:49:12;;;;;;;;;4.50;3.75;;;;;;;;4846994;29;45334;-64
2023/08/07 02:51:37;;;;;;;;;3.50;3.50;;;;;;;;4847195;29;45373;-64
2023/08/07 02:54:02;;;;;;;;;3.00;3.00;;;;;;;;4847584;29;45324;-64
2023/08/07 02:56:28;;;;;;;;;4.50;4.50;;;;;;;;4846440;29;46016;-64
2023/08/07 02:58:53;;;;;;;;;4.75;4.75;;;;;;;;4846864;29;45492;-64
2023/08/07 03:01:19;;;;;;;;;5.00;4.50;;;;;;;;4847230;29;45378;-64
2023/08/07 03:03:44;;;;;;;;;4.50;3.25;;;;;;;;4847014;29;45366;-64
2023/08/07 03:06:09;;;;;;;;;3.25;3.25;;;;;;;;4846289;29;46392;-64
2023/08/07 03:08:35;;;;;;;;;3.00;3.00;;;;;;;;4846684;29;45510;-64
2023/08/07 03:11:00;;;;;;;;;5.25;4.00;;;;;;;;4846818;29;45631;-64
2023/08/07 03:13:28;;;;;;;;;4.50;3.50;;;;;;;;4846876;29;45475;-64
2023/08/07 03:16:00;;;;;;;;;4.75;3.25;;;;;;;;4846110;29;46298;-64
2023/08/07 03:18:25;;;;;;;;;1.50;1.50;;;;;;;;4846394;29;45456;-64
2023/08/07 03:20:50;;;;;;;;;5.25;3.75;;;;;;;;4847050;29;45237;-64
2023/08/07 03:23:16;;;;;;;;;6.25;6.25;;;;;;;;4847054;29;45248;-64
2023/08/07 03:25:41;;;;;;;;;4.00;4.00;;;;;;;;4846597;29;45699;-64
2023/08/07 03:28:06;;;;;;;;;4.00;2.50;;;;;;;;4846067;29;45356;-64
2023/08/07 03:30:31;;;;;;;;;3.00;3.00;;;;;;;;4846482;29;45294;-64
2023/08/07 03:32:56;;;;;;;;;5.75;4.75;;;;;;;;4847023;29;45359;-64
2023/08/07 03:35:22;;;;;;;;;6.75;4.00;;;;;;;;4846367;29;46602;-64
2023/08/07 03:37:47;;;;;;;;;6.75;3.50;;;;;;;;4846088;29;45567;-64
2023/08/07 03:40:12;;;;;;;;;4.50;3.50;;;;;;;;4846352;29;45269;-64
2023/08/07 03:42:37;;;;;;;;;7.25;4.00;;;;;;;;4846781;29;45232;-64
2023/08/07 03:45:03;;;;;;;;;4.50;3.50;;;;;;;;4846212;29;45392;-64
2023/08/07 03:47:28;;;;;;;;;5.00;4.50;;;;;;;;4845959;29;45325;-64
2023/08/07 03:49:53;;;;;;;;;4.75;3.25;;;;;;;;4846654;29;45404;-64
2023/08/07 03:52:18;;;;;;;;;4.75;2.75;;;;;;;;4846248;29;45318;-64
2023/08/07 03:54:43;;;;;;;;;3.25;3.25;;;;;;;;4846141;29;46277;-64
2023/08/07 03:57:10;;;;;;;;;7.00;5.00;;;;;;;;4846147;29;45456;-64
2023/08/07 03:59:35;;;;;;;;;4.50;2.50;;;;;;;;4828856;29;45405;-64
2023/08/07 04:02:00;;;;;;;;;4.75;3.25;;;;;;;;4846461;29;45374;-64
2023/08/07 04:04:25;;;;;;;;;4.00;4.00;;;;;;;;4845777;29;46631;-64
2023/08/07 04:06:50;;;;;;;;;5.50;4.00;;;;;;;;4846068;29;45264;-64
2023/08/07 04:09:16;;;;;;;;;4.75;4.75;;;;;;;;4845791;29;45271;-64
2023/08/07 04:11:42;;;;;;;;;7.00;6.00;;;;;;;;4846267;29;45472;-64
2023/08/07 04:14:07;;;;;;;;;6.50;5.00;;;;;;;;4845749;29;46208;-64
2023/08/07 04:16:32;;;;;;;;;9.00;6.00;;;;;;;;4845754;29;45372;-64
2023/08/07 04:18:57;;;;;;;;;5.25;4.00;;;;;;;;4845661;29;45307;-64
2023/08/07 04:21:23;;;;;;;;;7.50;5.25;;;;;;;;4846153;29;46272;-64
2023/08/07 04:23:48;;;;;;;;;5.00;4.50;;;;;;;;4845593;29;46418;-64
2023/08/07 04:26:14;;;;;;;;;3.75;2.75;;;;;;;;4844950;29;45378;-64
2023/08/07 04:28:39;;;;;;;;;6.00;4.75;;;;;;;;4845754;29;45453;-64
2023/08/07 04:31:04;;;;;;;;;6.00;6.00;;;;;;;;4845602;29;45379;-64
2023/08/07 04:33:29;;;;;;;;;8.00;7.00;;;;;;;;4845573;29;46771;-64
2023/08/07 04:35:55;;;;;;;;;5.50;5.50;;;;;;;;4845672;29;45305;-64
2023/08/07 04:38:20;;;;;;;;;4.50;4.50;;;;;;;;4845673;29;45498;-64
2023/08/07 04:40:46;;;;;;;;;6.25;6.25;;;;;;;;4845344;29;45359;-65
2023/08/07 04:43:11;;;;;;;;;1.00;1.00;;;;;;;;4845626;29;46217;-64
2023/08/07 04:45:38;;;;;;;;;7.25;5.50;;;;;;;;4845426;29;45257;-64
2023/08/07 04:48:03;;;;;;;;;6.00;5.50;;;;;;;;4845498;29;45165;-64
2023/08/07 04:50:29;;;;;;;;;7.00;5.50;;;;;;;;4845230;29;45492;-64
2023/08/07 04:52:54;;;;;;;;;8.50;6.75;;;;;;;;4845131;29;45520;-64
2023/08/07 04:55:19;;;;;;;;;6.25;6.00;;;;;;;;4845487;29;45398;-64
2023/08/07 04:57:46;;;;;;;;;7.33;6.33;;;;;;;;4845469;29;45393;-64
2023/08/07 05:00:11;;;;;;;;;5.25;4.75;;;;;;;;4845366;29;45424;-64
2023/08/07 05:02:36;;;;;;;;;8.00;5.25;;;;;;;;4844492;29;45788;-64
2023/08/07 05:05:02;;;;;;;;;4.50;4.50;;;;;;;;4845252;29;45784;-64
2023/08/07 05:07:27;;;;;;;;;6.75;5.50;;;;;;;;4845222;29;45226;-64
2023/08/07 05:09:53;;;;;;;;;7.50;5.50;;;;;;;;4845412;29;45414;-64
2023/08/07 05:12:18;;;;;;;;;4.25;4.25;;;;;;;;4844315;29;46665;-64
2023/08/07 05:14:43;;;;;;;;;6.25;5.00;;;;;;;;4844882;29;45646;-64
2023/08/07 05:17:09;;;;;;;;;4.50;4.50;;;;;;;;4845232;29;45301;-64
2023/08/07 05:19:34;;;;;;;;;7.75;5.00;;;;;;;;4845423;29;45432;-64
2023/08/07 05:21:59;;;;;;;;;9.00;6.00;;;;;;;;4844430;29;45523;-64
2023/08/07 05:24:24;;;;;;;;;6.50;4.00;;;;;;;;4844965;29;45642;-64
2023/08/07 05:26:49;;;;;;;;;6.50;4.75;;;;;;;;4844905;29;45359;-64
2023/08/07 05:29:14;;;;;;;;;6.50;5.75;;;;;;;;4845051;29;45354;-64
2023/08/07 05:31:40;;;;;;;;;7.25;5.50;;;;;;;;4844867;29;45460;-64
2023/08/07 05:34:06;;;;;;;;;7.75;5.50;;;;;;;;4844212;29;45457;-64
2023/08/07 05:36:32;;;;;;;;;7.25;5.25;;;;;;;;4844315;29;45313;-64
2023/08/07 05:38:58;;;;;;;;;18.67;18.67;;;;;;;;4844250;29;45467;-64
2023/08/07 05:41:23;;;;;;;;;7.75;6.25;;;;;;;;4844504;29;46161;-64
2023/08/07 05:43:48;;;;;;;;;6.75;6.25;;;;;;;;4844368;29;45316;-64
2023/08/07 05:46:13;;;;;;;;;5.25;5.25;;;;;;;;4844416;29;45455;-64
2023/08/07 05:48:39;;;;;;;;;6.50;4.25;;;;;;;;4845064;29;45353;-64
2023/08/07 05:51:04;;;;;;;;;5.00;3.75;;;;;;;;4844381;29;45355;-64
2023/08/07 05:53:29;;;;;;;;;5.25;4.25;;;;;;;;4844060;29;45187;-64
2023/08/07 05:55:54;;;;;;;;;7.00;6.00;;;;;;;;4844666;29;45454;-64
2023/08/07 05:58:20;;;;;;;;;6.75;5.00;;;;;;;;4844614;29;45621;-64
2023/08/07 06:00:46;;;;;;;;;6.75;4.50;;;;;;;;4844434;29;46512;-65
2023/08/07 06:03:11;;;;;;;;;4.75;4.75;;;;;;;;4844314;29;45280;-64
2023/08/07 06:05:36;;;;;;;;;6.25;5.50;;;;;;;;4844173;29;45371;-64
2023/08/07 06:08:01;;;;;;;;;6.75;4.25;;;;;;;;4844598;29;45300;-64
2023/08/07 06:10:27;;;;;;;;;5.00;5.00;;;;;;;;4844262;29;46642;-64
2023/08/07 06:12:52;;;;;;;;;7.75;5.50;;;;;;;;4844486;29;45324;-64
2023/08/07 06:15:17;;;;;;;;;7.67;7.33;;;;;;;;4843600;29;45524;-64
2023/08/07 06:17:42;;;;;;;;;3.75;3.25;;;;;;;;4844617;29;45630;-64
2023/08/07 06:20:09;;;;;;;;;7.25;7.25;;;;;;;;4844122;29;45520;-64
2023/08/07 06:22:34;;;;;;;;;9.50;6.50;;;;;;;;4844253;29;45546;-65
2023/08/07 06:24:59;;;;;;;;;4.00;3.75;;;;;;;;4844019;29;45678;-64
2023/08/07 06:27:24;;;;;;;;;9.00;7.50;;;;;;;;4844330;29;45458;-64
2023/08/07 06:29:50;;;;;;;;;7.25;3.75;;;;;;;;4843990;29;47289;-64
2023/08/07 06:32:17;;;;;;;;;4.75;4.75;;;;;;;;4843925;29;45430;-64
2023/08/07 06:34:42;;;;;;;;;8.75;5.00;;;;;;;;4844166;29;45419;-64
2023/08/07 06:37:08;;;;;;;;;3.75;3.75;;;;;;;;4843946;29;45511;-64
2023/08/07 06:39:33;;;;;;;;;5.00;5.00;;;;;;;;4843908;29;46014;-64
2023/08/07 06:42:00;;;;;;;;;4.75;2.25;;;;;;;;4844115;29;45368;-64
2023/08/07 06:44:25;;;;;;;;;4.75;3.75;;;;;;;;4843999;29;45436;-64
2023/08/07 06:46:50;;;;;;;;;6.50;4.00;;;;;;;;4843656;29;45401;-64
2023/08/07 06:49:15;;;;;;;;;4.25;3.75;;;;;;;;4845676;29;46180;-64
2023/08/07 06:51:40;;;;;;;;;4.00;4.00;;;;;;;;4847000;29;45371;-64
2023/08/07 06:54:06;;;;;;;;;3.00;3.00;;;;;;;;4847137;29;45381;-64
2023/08/07 06:56:31;;;;;;;;;6.00;4.50;;;;;;;;4847038;29;45478;-64
2023/08/07 06:58:56;;;;;;;;;3.00;3.00;;;;;;;;4846630;29;45643;-64
2023/08/07 07:01:21;;;;;;;;;4.25;4.25;;;;;;;;4847035;29;45532;-64
2023/08/07 07:03:52;;;;;;;;;3.00;3.00;;;;;;;;4847006;29;45408;-64
2023/08/07 07:06:17;;;;;;;;;4.50;2.00;;;;;;;;4846900;29;45436;-64
2023/08/07 07:08:42;;;;;;;;;3.75;3.00;;;;;;;;4846408;29;46346;-64
2023/08/07 07:11:08;;;;;;;;;2.00;2.00;;;;;;;;4846753;29;45404;-64
2023/08/07 07:13:33;;;;;;;;;2.25;2.25;;;;;;;;4846754;29;45407;-64
2023/08/07 07:15:59;;;;;;;;;4.50;4.50;;;;;;;;4846581;29;45252;-64
2023/08/07 07:18:24;;;;;;;;;1.25;0.00;;;;;;;;4845877;29;46521;-65
2023/08/07 07:21:00;;;;;;;;;4.00;3.25;;;;;;;;4846446;29;45378;-62
2023/08/07 07:23:25;;;;;;;;;2.00;2.00;;;;;;;;4846615;29;45466;-62
2023/08/07 07:25:50;;;;;;;;;4.00;4.00;;;;;;;;4846866;29;45169;-65
2023/08/07 07:28:15;;;;;;;;;3.75;3.00;;;;;;;;4845754;29;45566;-63
2023/08/07 07:30:40;;;;;;;;;4.50;4.50;;;;;;;;4846485;29;45528;-62
2023/08/07 07:33:06;;;;;;;;;9.75;5.50;;;;;;;;4843757;29;45295;-63
2023/08/07 07:35:31;;;;;;;;;3.00;3.00;;;;;;;;4846008;29;45315;-63
2023/08/07 07:37:56;;;;;;;;;5.00;3.00;;;;;;;;4845217;29;45509;-64
2023/08/07 07:40:22;;;;;;;;;5.00;3.00;;;;;;;;4845414;29;45651;-61
2023/08/07 07:42:47;;;;;;;;;2.50;2.50;;;;;;;;4845620;29;45622;-59
2023/08/07 07:45:12;;;;;;;;;3.50;2.00;;;;;;;;4845924;29;45361;-62
2023/08/07 07:47:37;;;;;;;;;3.50;3.00;;;;;;;;4845312;29;45391;-60
2023/08/07 07:50:07;;;;;;;;;9.67;8.33;;;;;;;;4845449;29;45362;-60
2023/08/07 07:52:32;;;;;;;;;10.33;8.33;;;;;;;;4845332;29;45468;-61
2023/08/07 07:54:58;;;;;;;;;6.00;5.50;;;;;;;;4845842;29;45344;-60
2023/08/07 07:57:24;;;;;;;;;3.00;3.00;;;;;;;;4845048;29;45378;-60
2023/08/07 07:59:49;;;;;;;;;4.50;4.25;;;;;;;;4844397;29;45699;-62
2023/08/07 08:02:15;;;;;;;;;6.00;4.25;;;;;;;;4844400;29;45413;-62
2023/08/07 08:04:41;;;;;;;;;6.00;6.00;;;;;;;;4845460;29;45364;-61
2023/08/07 08:07:06;;;;;;;;;5.75;4.50;;;;;;;;4844471;29;46378;-66
2023/08/07 08:09:31;;;;;;;;;4.50;4.50;;;;;;;;4844905;29;45176;-66
2023/08/07 08:11:58;;;;;;;;;10.00;7.33;;;;;;;;4844776;29;45509;-66
2023/08/07 08:14:23;;;;;;;;;4.75;3.50;;;;;;;;4844047;29;45369;-66
2023/08/07 08:16:48;;;;;;;;;8.25;6.25;;;;;;;;4844378;29;46534;-66
2023/08/07 08:19:15;;;;;;;;;9.67;6.00;;;;;;;;4845714;29;45329;-66
2023/08/07 08:21:40;;;;;;;;;10.33;7.33;;;;;;;;4845541;29;45415;-65
2023/08/07 08:24:05;;;;;;;;;10.00;7.33;;;;;;;;4845799;29;45389;-66
2023/08/07 08:26:31;;;;;;;;;7.33;7.33;;;;;;;;4845185;29;47246;-66
2023/08/07 08:28:56;;;;;;;;;11.67;8.00;;;;;;;;4845440;29;45453;-66
2023/08/07 08:31:23;;;;;;;;;10.33;8.33;;;;;;;;4845211;29;45353;-66
2023/08/07 08:33:48;;;;;;;;;10.50;8.25;;;;;;;;4845859;29;45466;-66
2023/08/07 08:36:14;;;;;;;;;9.67;8.33;;;;;;;;4845295;29;46386;-64
2023/08/07 08:38:39;;;;;;;;;8.00;6.00;;;;;;;;4845269;29;45323;-64
2023/08/07 08:41:06;;;;;;;;;6.50;6.50;;;;;;;;4844934;29;45315;-64
2023/08/07 08:43:36;;;;;;;;;4.75;3.50;;;;;;;;4845585;29;45353;-64
2023/08/07 08:46:01;;;;;;;;;6.00;4.25;;;;;;;;4845344;29;45425;-64
2023/08/07 08:48:28;;;;;;;;;3.75;3.75;;;;;;;;4845068;29;45446;-64
2023/08/07 08:50:54;;;;;;;;;4.00;4.00;;;;;;;;4845211;29;45417;-64
2023/08/07 08:53:20;;;;;;;;;3.00;3.00;;;;;;;;4845124;29;45452;-67
2023/08/07 08:55:47;;;;;;;;;2.25;2.25;;;;;;;;4845085;29;45446;-65
2023/08/07 08:58:13;;;;;;;;;5.00;4.00;;;;;;;;4844866;29;45398;-63
2023/08/07 09:00:39;;;;;;;;;2.75;2.75;;;;;;;;4845154;29;45332;-63
2023/08/07 09:03:04;;;;;;;;;2.75;2.75;;;;;;;;4844769;29;45483;-64
2023/08/07 09:05:31;;;;;;;;;1.00;1.00;;;;;;;;4844915;29;45431;-64
2023/08/07 09:07:56;;;;;;;;;4.25;3.00;;;;;;;;4844919;29;45343;-64
2023/08/07 09:10:22;;;;;;;;;2.50;2.50;;;;;;;;4845301;29;45457;-64
2023/08/07 09:12:53;;;;;;;;;5.00;5.00;;;;;;;;4844732;29;45224;-64
2023/08/07 09:15:19;;;;;;;;;4.00;3.00;;;;;;;;4844664;29;46312;-64
2023/08/07 09:17:46;;;;;;;;;6.00;4.00;;;;;;;;4844733;29;45366;-64
2023/08/07 09:20:13;;;;;;;;;2.50;2.50;;;;;;;;4844852;29;45517;-64
2023/08/07 09:22:39;;;;;;;;;3.50;2.00;;;;;;;;4844952;29;45436;-64
2023/08/07 09:25:04;;;;;;;;;4.00;3.50;;;;;;;;4844527;29;45592;-64
2023/08/07 09:27:30;;;;;;;;;7.25;4.25;;;;;;;;4844470;29;45278;-64
2023/08/07 09:29:56;;;;;;;;;4.75;3.00;;;;;;;;4844854;29;45350;-64
2023/08/07 09:32:23;;;;;;;;;5.00;3.00;;;;;;;;4844758;29;45286;-64
2023/08/07 09:34:49;;;;;;;;;4.00;3.00;;;;;;;;4844102;29;46522;-64
2023/08/07 09:37:15;;;;;;;;;1.75;1.75;;;;;;;;4844801;29;45220;-64
2023/08/07 09:39:40;;;;;;;;;2.25;2.25;;;;;;;;4844516;29;45421;-64
2023/08/07 09:42:13;;;;;;;;;3.50;2.00;;;;;;;;4844894;29;45214;-64
2023/08/07 09:44:38;;;;;;;;;4.00;2.00;;;;;;;;4844302;29;47136;-64
2023/08/07 09:47:23;;;;;;;;;4.00;2.25;;;;;;;;4844684;29;45521;-64
2023/08/07 09:49:54;;;;;;;;;2.25;2.25;;;;;;;;4844174;29;45375;-64
2023/08/07 09:52:19;;;;;;;;;3.00;3.00;;;;;;;;4844612;29;45345;-64
2023/08/07 09:54:44;;;;;;;;;1.00;1.00;;;;;;;;4843920;29;46845;-64
2023/08/07 09:57:09;;;;;;;;;1.00;1.00;;;;;;;;4844332;29;45309;-64
2023/08/07 09:59:35;;;;;;;;;2.00;2.00;;;;;;;;4844570;29;45321;-64
2023/08/07 10:02:02;;;;;;;;;3.25;2.00;;;;;;;;4844620;29;45490;-64
2023/08/07 10:04:27;;;;;;;;;2.67;1.00;;;;;;;;4843869;29;46715;-64
2023/08/07 10:06:53;;;;;;;;;0.00;0.00;;;;;;;;4843695;29;45564;-64
2023/08/07 10:09:18;;;;;;;;;4.00;3.00;;;;;;;;4844414;29;45449;-64
2023/08/07 10:11:43;;;;;;;;;1.00;1.00;;;;;;;;4844784;29;45338;-64
2023/08/07 10:14:09;;;;;;;;;1.00;1.00;;;;;;;;4843865;29;46203;-64
2023/08/07 10:16:39;;;;;;;;;1.00;1.00;;;;;;;;4843498;29;45350;-64
2023/08/07 10:19:04;;;;;;;;;3.00;1.33;;;;;;;;4844234;29;45418;-64
2023/08/07 10:21:29;;;;;;;;;0.00;0.00;;;;;;;;4844511;29;45397;-64
2023/08/07 10:23:55;;;;;;;;;0.33;0.33;;;;;;;;4845538;29;45450;-64
2023/08/07 10:26:21;;;;;;;;;2.00;0.00;;;;;;;;4846760;29;45411;-64
2023/08/07 10:28:47;;;;;;;;;0.33;0.33;;;;;;;;4847420;29;45310;-64
2023/08/07 10:31:13;;;;;;;;;4.67;2.67;;;;;;;;4847714;29;45598;-65
2023/08/07 10:33:39;;;;;;;;;1.67;1.67;;;;;;;;4847153;29;46512;-65
2023/08/07 10:36:08;;;;;;;;;1.00;1.00;;;;;;;;4847259;29;45413;-65
2023/08/07 10:38:35;;;;;;;;;3.00;0.67;;;;;;;;4846772;29;45385;-65
2023/08/07 10:41:03;;;;;;;;;1.67;0.33;;;;;;;;4847373;29;45317;-65
2023/08/07 10:43:28;;;;;;;;;0.33;0.33;;;;;;;;4847201;29;46252;-65
2023/08/07 10:45:54;;;;;;;;;4.67;4.67;;;;;;;;4847076;29;45252;-64
2023/08/07 10:48:21;;;;;;;;;0.67;0.67;;;;;;;;4846717;29;45276;-64
2023/08/07 10:50:51;;;;;;;;;1.67;1.67;;;;;;;;4847438;29;45487;-64
2023/08/07 10:53:21;;;;;;;;;1.33;1.33;;;;;;;;4846855;29;47322;-65
2023/08/07 10:55:46;;;;;;;;;0.00;0.00;;;;;;;;4846994;29;45396;-64
2023/08/07 10:58:23;;;;;;;;;0.33;0.33;;;;;;;;4846507;29;45376;-64
2023/08/07 11:00:48;;;;;;;;;2.00;1.00;;;;;;;;4847296;29;45368;-65
2023/08/07 11:03:20;;;;;;;;;0.00;0.00;;;;;;;;4846839;29;45366;-64
2023/08/07 11:05:45;;;;;;;;;0.67;0.67;;;;;;;;4846989;29;45462;-63
2023/08/07 11:08:11;;;;;;;;;0.00;0.00;;;;;;;;4846101;29;45373;-63
2023/08/07 11:10:36;;;;;;;;;0.00;0.00;;;;;;;;4847080;29;45494;-64
2023/08/07 11:13:02;;;;;;;;;1.00;1.00;;;;;;;;4846780;29;46397;-64
2023/08/07 11:15:27;;;;;;;;;1.00;1.00;;;;;;;;4844035;29;45805;-61
2023/08/07 11:17:52;;;;;;;;;1.00;1.00;;;;;;;;4845795;29;45272;-61
2023/08/07 11:20:19;;;;;;;;;2.00;0.67;;;;;;;;4845473;29;45564;-61
2023/08/07 11:22:44;;;;;;;;;2.67;1.00;;;;;;;;4845784;29;45461;-62
2023/08/07 11:25:11;;;;;;;;;0.00;0.00;;;;;;;;4846032;29;45489;-63
2023/08/07 11:27:36;;;;;;;;;1.00;1.00;;;;;;;;4845752;29;45464;-63
2023/08/07 11:30:01;;;;;;;;;0.00;0.00;;;;;;;;4845655;29;45776;-63
2023/08/07 11:32:26;;;;;;;;;1.00;0.00;;;;;;;;4845791;29;45802;-64
2023/08/07 11:34:52;;;;;;;;;0.00;0.00;;;;;;;;4843252;29;45452;-65
2023/08/07 11:37:17;;;;;;;;;1.00;1.00;;;;;;;;4845907;29;45462;-62
2023/08/07 11:39:42;;;;;;;;;0.67;0.00;;;;;;;;4845193;29;45430;-62
2023/08/07 11:42:08;;;;;;;;;0.25;0.25;;;;;;;;4844303;29;47221;-62
2023/08/07 11:44:33;;;;;;;;;0.00;0.00;;;;;;;;4845590;29;45320;-63
2023/08/07 11:46:59;;;;;;;;;0.25;0.25;;;;;;;;4846119;29;45418;-62
2023/08/07 11:49:24;;;;;;;;;2.00;2.00;;;;;;;;4845518;29;45343;-63
2023/08/07 11:51:50;;;;;;;;;0.75;0.75;;;;;;;;4844727;29;45392;-61
2023/08/07 11:54:16;;;;;;;;;0.00;0.00;;;;;;;;4845489;29;45491;-62
2023/08/07 11:56:42;;;;;;;;;1.25;1.00;;;;;;;;4845690;29;45561;-63
2023/08/07 11:59:07;;;;;;;;;4.00;4.00;;;;;;;;4845801;29;45429;-63
2023/08/07 12:01:36;;;;;;;;;0.67;0.67;;;;;;;;4844767;29;45441;-63
2023/08/07 12:04:04;;;;;;;;;1.00;1.00;;;;;;;;4845254;29;45438;-64
2023/08/07 12:06:30;;;;;;;;;0.75;0.50;;;;;;;;4845377;29;45260;-60
2023/08/07 12:08:56;;;;;;;;;4.00;1.00;;;;;;;;4845351;29;45354;-58
2023/08/07 12:11:21;;;;;;;;;0.67;0.33;;;;;;;;4844930;29;45482;-60
2023/08/07 12:13:47;;;;;;;;;0.25;0.00;;;;;;;;4845166;29;45313;-61
2023/08/07 12:16:15;;;;;;;;;0.00;0.00;;;;;;;;4845195;29;45508;-61
2023/08/07 12:18:43;;;;;;;;;0.00;0.00;;;;;;;;4844261;29;45443;-65
2023/08/07 12:21:08;;;;;;;;;1.00;1.00;;;;;;;;4844657;29;45494;-61
2023/08/07 12:23:34;;;;;;;;;2.00;0.50;;;;;;;;4844765;29;45444;-61
2023/08/07 12:26:00;;;;;;;;;0.00;0.00;;;;;;;;4844976;29;45436;-60
2023/08/07 12:28:25;;;;;;;;;1.00;0.75;;;;;;;;4845189;29;45423;-62
2023/08/07 12:30:51;;;;;;;;;2.00;0.00;;;;;;;;4844797;29;46999;-62
2023/08/07 12:33:17;;;;;;;;;1.75;0.75;;;;;;;;4844420;29;45640;-62
2023/08/07 12:35:42;;;;;;;;;0.00;0.00;;;;;;;;4845047;29;45632;-63
2023/08/07 12:38:09;;;;;;;;;0.25;0.25;;;;;;;;4844149;29;45828;-61
2023/08/07 12:40:36;;;;;;;;;3.00;1.00;;;;;;;;4843922;29;45751;-62
2023/08/07 12:43:01;;;;;;;;;2.00;0.00;;;;;;;;4843786;29;45457;-60
2023/08/07 12:45:26;;;;;;;;;0.50;0.50;;;;;;;;4844637;29;45711;-63
2023/08/07 12:47:52;;;;;;;;;0.75;0.75;;;;;;;;4844779;29;45375;-62
2023/08/07 12:50:17;;;;;;;;;0.00;0.00;;;;;;;;4844188;29;45887;-61
2023/08/07 12:52:43;;;;;;;;;0.00;0.00;;;;;;;;4844468;29;45619;-60
2023/08/07 12:55:08;;;;;;;;;0.75;0.00;;;;;;;;4844242;29;45539;-62
2023/08/07 12:57:33;;;;;;;;;1.00;1.00;;;;;;;;4844980;29;45365;-62
2023/08/07 12:59:59;;;;;;;;;1.50;1.50;;;;;;;;4844199;29;45412;-67
2023/08/07 13:02:24;;;;;;;;;0.00;0.00;;;;;;;;4844361;29;45396;-67
2023/08/07 13:04:50;;;;;;;;;0.00;0.00;;;;;;;;4843879;29;45436;-68
2023/08/07 13:07:15;;;;;;;;;4.00;4.00;;;;;;;;4844309;29;45381;-63
2023/08/07 13:09:41;;;;;;;;;0.00;0.00;;;;;;;;4844222;29;46896;-58
2023/08/07 13:12:06;;;;;;;;;0.00;0.00;;;;;;;;4844263;29;45396;-61
2023/08/07 13:14:31;;;;;;;;;0.00;0.00;;;;;;;;4844058;29;45521;-61
2023/08/07 13:16:56;;;;;;;;;1.25;1.00;;;;;;;;4844526;29;45528;-60
2023/08/07 13:19:22;;;;;;;;;1.00;1.00;;;;;;;;4843899;29;46518;-62
2023/08/07 13:21:47;;;;;;;;;0.00;0.00;;;;;;;;4844280;29;45372;-63
2023/08/07 13:24:12;;;;;;;;;0.33;0.33;;;;;;;;4844507;29;45366;-64
2023/08/07 13:26:44;;;;;;;;;1.33;0.67;;;;;;;;4844131;29;45317;-64
2023/08/07 13:29:09;;;;;;;;;0.00;0.00;;;;;;;;4844152;29;46362;-66
2023/08/07 13:31:34;;;;;;;;;0.00;0.00;;;;;;;;4844101;29;45453;-66
2023/08/07 13:34:00;;;;;;;;;0.00;0.00;;;;;;;;4844035;29;45317;-66
2023/08/07 13:36:25;;;;;;;;;0.75;0.75;;;;;;;;4843693;29;45411;-66
2023/08/07 13:38:51;;;;;;;;;0.75;0.00;;;;;;;;4844017;29;45432;-68
2023/08/07 13:41:16;;;;;;;;;0.75;0.00;;;;;;;;4843756;29;45588;-67
2023/08/07 13:43:42;;;;;;;;;18.00;16.00;;;;;;;;4843943;29;45480;-64
2023/08/07 13:46:07;;;;;;;;;1.00;1.00;;;;;;;;4843669;29;45335;-68
2023/08/07 13:48:33;;;;;;;;;0.00;0.00;;;;;;;;4843989;29;45587;-64
2023/08/07 13:50:59;;;;;;;;;0.00;0.00;;;;;;;;4843613;29;45408;-64
2023/08/07 13:53:28;;;;;;;;;0.00;0.00;;;;;;;;4843356;29;45381;-68
2023/08/07 13:55:54;;;;;;;;;2.67;0.33;;;;;;;;4842818;29;45646;-70
2023/08/07 13:58:20;;;;;;;;;1.50;0.00;;;;;;;;4842619;29;46489;-66
2023/08/07 14:00:45;;;;;;;;;0.50;0.50;;;;;;;;4843633;29;45421;-66
2023/08/07 14:03:12;;;;;;;;;0.00;0.00;;;;;;;;4843989;29;45346;-66
2023/08/07 14:05:38;;;;;;;;;0.67;0.67;;;;;;;;4843401;29;45435;-67
2023/08/07 14:08:04;;;;;;;;;0.00;0.00;;;;;;;;4842710;29;47560;-66
2023/08/07 14:10:29;;;;;;;;;0.00;0.00;;;;;;;;4843261;29;45410;-65
2023/08/07 14:12:54;;;;;;;;;1.00;1.00;;;;;;;;4843877;29;45424;-65
2023/08/07 14:15:19;;;;;;;;;1.00;1.00;;;;;;;;4843688;29;45295;-64
2023/08/07 14:17:45;;;;;;;;;0.67;0.67;;;;;;;;4842992;29;46533;-64
2023/08/07 14:20:10;;;;;;;;;0.75;0.75;;;;;;;;4843468;29;45387;-66
2023/08/07 14:22:36;;;;;;;;;2.00;0.50;;;;;;;;4843424;29;45483;-67
2023/08/07 14:25:02;;;;;;;;;1.00;1.00;;;;;;;;4843972;29;45621;-66
2023/08/07 14:27:27;;;;;;;;;0.33;0.33;;;;;;;;4842345;29;45325;-67
2023/08/07 14:29:52;;;;;;;;;1.00;1.00;;;;;;;;4843373;29;45370;-66
2023/08/07 14:32:17;;;;;;;;;2.00;0.00;;;;;;;;4843589;29;45436;-66
2023/08/07 14:34:42;;;;;;;;;0.25;0.25;;;;;;;;4843570;29;45628;-66